sensor_id;sensor_type;location;lat;lon;timestamp;temperature;humidity
1976;DHT22;988;48.016;7.800;2023-06-26T00:01:51;22.20;66.10
1976;DHT22;988;48.016;7.800;2023-06-26T00:04:17;22.20;66.30
1976;DHT22;988;48.016;7.800;2023-06-26T00:06:42;22.20;65.90
1976;DHT22;988;48.016;7.800;2023-06-26T00:09:08;22.20;66.10
1976;DHT22;988;48.016;7.800;2023-06-26T00:11:34;22.20;66.50
1976;DHT22;988;48.016;7.800;2023-06-26T00:14:00;22.10;66.40
1976;DHT22;988;48.016;7.800;2023-06-26T00:16:27;22.00;67.00
1976;DHT22;988;48.016;7.800;2023-06-26T00:18:53;22.00;68.00
1976;DHT22;988;48.016;7.800;2023-06-26T00:21:19;22.00;69.00
1976;DHT22;988;48.016;7.800;2023-06-26T00:23:45;21.80;69.00
1976;DHT22;988;48.016;7.800;2023-06-26T00:26:11;21.80;69.90
1976;DHT22;988;48.016;7.800;2023-06-26T00:28:37;21.70;70.30
1976;DHT22;988;48.016;7.800;2023-06-26T00:31:03;21.60;69.50
1976;DHT22;988;48.016;7.800;2023-06-26T00:33:28;21.70;67.90
1976;DHT22;988;48.016;7.800;2023-06-26T00:35:54;21.60;68.40
1976;DHT22;988;48.016;7.800;2023-06-26T00:38:20;21.50;70.80
1976;DHT22;988;48.016;7.800;2023-06-26T00:40:46;21.50;71.20
1976;DHT22;988;48.016;7.800;2023-06-26T00:43:12;21.40;71.60
1976;DHT22;988;48.016;7.800;2023-06-26T00:45:37;21.30;72.50
1976;DHT22;988;48.016;7.800;2023-06-26T00:48:03;21.30;73.60
1976;DHT22;988;48.016;7.800;2023-06-26T00:50:29;21.20;74.30
1976;DHT22;988;48.016;7.800;2023-06-26T00:52:54;21.20;74.80
1976;DHT22;988;48.016;7.800;2023-06-26T00:55:26;21.10;74.90
1976;DHT22;988;48.016;7.800;2023-06-26T00:57:52;21.00;74.30
1976;DHT22;988;48.016;7.800;2023-06-26T01:00:18;21.00;72.90
1976;DHT22;988;48.016;7.800;2023-06-26T01:02:44;20.90;72.20
1976;DHT22;988;48.016;7.800;2023-06-26T01:05:10;20.90;73.60
1976;DHT22;988;48.016;7.800;2023-06-26T01:07:38;20.90;75.50
1976;DHT22;988;48.016;7.800;2023-06-26T01:10:06;20.70;75.30
1976;DHT22;988;48.016;7.800;2023-06-26T01:12:36;20.60;75.10
1976;DHT22;988;48.016;7.800;2023-06-26T01:15:02;20.60;75.70
1976;DHT22;988;48.016;7.800;2023-06-26T01:17:28;20.60;76.60
1976;DHT22;988;48.016;7.800;2023-06-26T01:19:58;20.70;76.60
1976;DHT22;988;48.016;7.800;2023-06-26T01:22:34;20.70;76.40
1976;DHT22;988;48.016;7.800;2023-06-26T01:28:04;20.70;76.50
1976;DHT22;988;48.016;7.800;2023-06-26T01:30:32;20.70;77.40
1976;DHT22;988;48.016;7.800;2023-06-26T01:33:00;20.60;77.90
1976;DHT22;988;48.016;7.800;2023-06-26T01:35:26;20.60;77.00
1976;DHT22;988;48.016;7.800;2023-06-26T01:37:52;20.50;79.20
1976;DHT22;988;48.016;7.800;2023-06-26T01:40:18;20.40;80.00
1976;DHT22;988;48.016;7.800;2023-06-26T01:42:43;20.40;80.60
1976;DHT22;988;48.016;7.800;2023-06-26T01:45:24;20.20;81.50
1976;DHT22;988;48.016;7.800;2023-06-26T01:47:52;20.20;82.00
1976;DHT22;988;48.016;7.800;2023-06-26T01:50:22;20.10;81.70
1976;DHT22;988;48.016;7.800;2023-06-26T01:53:11;20.00;82.80
1976;DHT22;988;48.016;7.800;2023-06-26T01:55:55;20.00;83.70
1976;DHT22;988;48.016;7.800;2023-06-26T01:58:24;20.00;84.10
1976;DHT22;988;48.016;7.800;2023-06-26T02:00:50;19.90;84.80
1976;DHT22;988;48.016;7.800;2023-06-26T02:03:16;19.80;84.60
1976;DHT22;988;48.016;7.800;2023-06-26T02:05:41;19.80;84.30
1976;DHT22;988;48.016;7.800;2023-06-26T02:08:08;19.80;84.10
1976;DHT22;988;48.016;7.800;2023-06-26T02:10:34;19.80;83.60
1976;DHT22;988;48.016;7.800;2023-06-26T02:13:00;19.80;84.40
1976;DHT22;988;48.016;7.800;2023-06-26T02:15:26;19.70;84.50
1976;DHT22;988;48.016;7.800;2023-06-26T02:17:51;19.60;83.80
1976;DHT22;988;48.016;7.800;2023-06-26T02:20:17;19.70;85.00
1976;DHT22;988;48.016;7.800;2023-06-26T02:22:43;19.70;84.50
1976;DHT22;988;48.016;7.800;2023-06-26T02:25:09;19.60;84.90
1976;DHT22;988;48.016;7.800;2023-06-26T02:27:35;19.60;84.90
1976;DHT22;988;48.016;7.800;2023-06-26T02:30:01;19.50;85.10
1976;DHT22;988;48.016;7.800;2023-06-26T02:32:27;19.40;85.40
1976;DHT22;988;48.016;7.800;2023-06-26T02:34:52;19.50;84.40
1976;DHT22;988;48.016;7.800;2023-06-26T02:37:19;19.50;86.40
1976;DHT22;988;48.016;7.800;2023-06-26T02:39:45;19.40;86.20
1976;DHT22;988;48.016;7.800;2023-06-26T02:42:10;19.40;85.60
1976;DHT22;988;48.016;7.800;2023-06-26T02:44:36;19.50;85.60
1976;DHT22;988;48.016;7.800;2023-06-26T02:47:01;19.50;87.10
1976;DHT22;988;48.016;7.800;2023-06-26T02:49:27;19.50;86.20
1976;DHT22;988;48.016;7.800;2023-06-26T02:51:52;19.50;86.60
1976;DHT22;988;48.016;7.800;2023-06-26T02:54:18;19.50;86.80
1976;DHT22;988;48.016;7.800;2023-06-26T02:56:44;19.50;86.30
1976;DHT22;988;48.016;7.800;2023-06-26T02:59:09;19.40;86.20
1976;DHT22;988;48.016;7.800;2023-06-26T03:01:35;19.40;86.50
1976;DHT22;988;48.016;7.800;2023-06-26T03:04:00;19.30;86.70
1976;DHT22;988;48.016;7.800;2023-06-26T03:06:27;19.40;87.60
1976;DHT22;988;48.016;7.800;2023-06-26T03:08:53;19.40;86.00
1976;DHT22;988;48.016;7.800;2023-06-26T03:11:19;19.40;87.10
1976;DHT22;988;48.016;7.800;2023-06-26T03:13:45;19.40;88.20
1976;DHT22;988;48.016;7.800;2023-06-26T03:16:10;19.40;87.30
1976;DHT22;988;48.016;7.800;2023-06-26T03:18:36;19.40;87.70
1976;DHT22;988;48.016;7.800;2023-06-26T03:21:02;19.40;88.30
1976;DHT22;988;48.016;7.800;2023-06-26T03:23:27;19.30;88.40
1976;DHT22;988;48.016;7.800;2023-06-26T03:25:53;19.30;88.80
1976;DHT22;988;48.016;7.800;2023-06-26T03:28:19;19.20;89.00
1976;DHT22;988;48.016;7.800;2023-06-26T03:30:45;19.20;88.60
1976;DHT22;988;48.016;7.800;2023-06-26T03:33:10;19.20;88.50
1976;DHT22;988;48.016;7.800;2023-06-26T03:35:36;19.30;88.20
1976;DHT22;988;48.016;7.800;2023-06-26T03:38:04;19.30;88.40
1976;DHT22;988;48.016;7.800;2023-06-26T03:40:29;19.30;87.90
1976;DHT22;988;48.016;7.800;2023-06-26T03:42:55;19.30;88.10
1976;DHT22;988;48.016;7.800;2023-06-26T03:45:20;19.30;89.80
1976;DHT22;988;48.016;7.800;2023-06-26T03:47:46;19.30;89.30
1976;DHT22;988;48.016;7.800;2023-06-26T03:50:18;19.30;88.80
1976;DHT22;988;48.016;7.800;2023-06-26T03:52:44;19.30;89.50
1976;DHT22;988;48.016;7.800;2023-06-26T03:55:10;19.40;89.60
1976;DHT22;988;48.016;7.800;2023-06-26T03:57:36;19.50;90.00
1976;DHT22;988;48.016;7.800;2023-06-26T04:00:02;19.50;90.00
1976;DHT22;988;48.016;7.800;2023-06-26T04:02:31;19.50;90.10
1976;DHT22;988;48.016;7.800;2023-06-26T04:04:56;19.30;90.60
1976;DHT22;988;48.016;7.800;2023-06-26T04:07:22;19.40;90.20
1976;DHT22;988;48.016;7.800;2023-06-26T04:09:48;19.50;90.40
1976;DHT22;988;48.016;7.800;2023-06-26T04:12:13;19.70;90.70
1976;DHT22;988;48.016;7.800;2023-06-26T04:14:39;19.60;91.10
1976;DHT22;988;48.016;7.800;2023-06-26T04:17:04;19.50;90.00
1976;DHT22;988;48.016;7.800;2023-06-26T04:19:30;19.60;90.80
1976;DHT22;988;48.016;7.800;2023-06-26T04:21:56;19.60;89.20
1976;DHT22;988;48.016;7.800;2023-06-26T04:24:22;19.70;90.00
1976;DHT22;988;48.016;7.800;2023-06-26T04:26:47;19.80;88.50
1976;DHT22;988;48.016;7.800;2023-06-26T04:29:13;19.90;86.70
1976;DHT22;988;48.016;7.800;2023-06-26T04:31:39;20.30;85.50
1976;DHT22;988;48.016;7.800;2023-06-26T04:34:05;20.60;83.50
1976;DHT22;988;48.016;7.800;2023-06-26T04:36:30;20.90;82.60
1976;DHT22;988;48.016;7.800;2023-06-26T04:38:57;21.20;81.80
1976;DHT22;988;48.016;7.800;2023-06-26T04:41:24;21.30;82.00
1976;DHT22;988;48.016;7.800;2023-06-26T04:43:49;21.40;81.10
1976;DHT22;988;48.016;7.800;2023-06-26T04:46:15;21.50;82.90
1976;DHT22;988;48.016;7.800;2023-06-26T04:48:40;21.60;80.70
1976;DHT22;988;48.016;7.800;2023-06-26T04:51:06;21.60;80.00
1976;DHT22;988;48.016;7.800;2023-06-26T04:53:31;21.70;79.00
1976;DHT22;988;48.016;7.800;2023-06-26T04:55:57;21.70;80.10
1976;DHT22;988;48.016;7.800;2023-06-26T04:58:23;21.90;78.00
1976;DHT22;988;48.016;7.800;2023-06-26T05:00:48;22.10;78.10
1976;DHT22;988;48.016;7.800;2023-06-26T05:03:16;22.20;77.50
1976;DHT22;988;48.016;7.800;2023-06-26T05:05:42;22.30;78.60
1976;DHT22;988;48.016;7.800;2023-06-26T05:08:22;22.40;77.70
1976;DHT22;988;48.016;7.800;2023-06-26T05:10:47;22.50;79.20
1976;DHT22;988;48.016;7.800;2023-06-26T05:13:13;22.60;78.00
1976;DHT22;988;48.016;7.800;2023-06-26T05:15:43;22.60;77.20
1976;DHT22;988;48.016;7.800;2023-06-26T05:18:08;22.80;76.10
1976;DHT22;988;48.016;7.800;2023-06-26T05:20:35;22.90;77.80
1976;DHT22;988;48.016;7.800;2023-06-26T05:23:04;23.00;77.60
1976;DHT22;988;48.016;7.800;2023-06-26T05:25:31;23.10;79.00
1976;DHT22;988;48.016;7.800;2023-06-26T05:27:57;23.20;79.40
1976;DHT22;988;48.016;7.800;2023-06-26T05:30:24;23.20;78.50
1976;DHT22;988;48.016;7.800;2023-06-26T05:32:56;23.30;78.50
1976;DHT22;988;48.016;7.800;2023-06-26T05:35:25;23.40;77.50
1976;DHT22;988;48.016;7.800;2023-06-26T05:37:54;23.50;76.70
1976;DHT22;988;48.016;7.800;2023-06-26T05:40:20;23.50;77.00
1976;DHT22;988;48.016;7.800;2023-06-26T05:42:46;23.60;77.10
1976;DHT22;988;48.016;7.800;2023-06-26T05:45:12;23.70;76.90
1976;DHT22;988;48.016;7.800;2023-06-26T05:47:37;23.80;76.30
1976;DHT22;988;48.016;7.800;2023-06-26T05:50:03;24.00;77.40
1976;DHT22;988;48.016;7.800;2023-06-26T05:52:30;24.10;76.80
1976;DHT22;988;48.016;7.800;2023-06-26T05:54:57;24.30;77.50
1976;DHT22;988;48.016;7.800;2023-06-26T05:57:27;24.50;76.80
1976;DHT22;988;48.016;7.800;2023-06-26T05:59:53;24.70;76.10
1976;DHT22;988;48.016;7.800;2023-06-26T06:02:19;24.80;76.70
1976;DHT22;988;48.016;7.800;2023-06-26T06:04:45;25.00;76.70
1976;DHT22;988;48.016;7.800;2023-06-26T06:07:11;25.00;75.90
1976;DHT22;988;48.016;7.800;2023-06-26T06:09:36;25.10;76.30
1976;DHT22;988;48.016;7.800;2023-06-26T06:12:06;25.20;76.00
1976;DHT22;988;48.016;7.800;2023-06-26T06:14:33;25.40;73.90
1976;DHT22;988;48.016;7.800;2023-06-26T06:16:58;25.40;74.80
1976;DHT22;988;48.016;7.800;2023-06-26T06:19:24;25.60;74.00
1976;DHT22;988;48.016;7.800;2023-06-26T06:21:49;25.70;72.80
1976;DHT22;988;48.016;7.800;2023-06-26T06:24:15;25.80;72.40
1976;DHT22;988;48.016;7.800;2023-06-26T06:26:41;25.90;70.90
1976;DHT22;988;48.016;7.800;2023-06-26T06:29:06;26.10;70.50
1976;DHT22;988;48.016;7.800;2023-06-26T06:31:32;26.30;69.70
1976;DHT22;988;48.016;7.800;2023-06-26T06:33:58;26.40;68.40
1976;DHT22;988;48.016;7.800;2023-06-26T06:36:23;26.60;68.70
1976;DHT22;988;48.016;7.800;2023-06-26T06:38:52;26.80;67.00
1976;DHT22;988;48.016;7.800;2023-06-26T06:41:17;26.70;66.90
1976;DHT22;988;48.016;7.800;2023-06-26T06:43:43;26.80;66.80
1976;DHT22;988;48.016;7.800;2023-06-26T06:46:09;26.90;66.90
1976;DHT22;988;48.016;7.800;2023-06-26T06:48:34;27.00;65.60
1976;DHT22;988;48.016;7.800;2023-06-26T06:51:00;27.10;65.80
1976;DHT22;988;48.016;7.800;2023-06-26T06:53:25;27.30;66.10
1976;DHT22;988;48.016;7.800;2023-06-26T06:55:51;27.30;65.20
1976;DHT22;988;48.016;7.800;2023-06-26T06:58:17;27.40;63.40
1976;DHT22;988;48.016;7.800;2023-06-26T07:00:44;27.40;62.60
1976;DHT22;988;48.016;7.800;2023-06-26T07:03:10;27.40;63.50
1976;DHT22;988;48.016;7.800;2023-06-26T07:05:36;27.50;63.20
1976;DHT22;988;48.016;7.800;2023-06-26T07:08:02;27.80;62.60
1976;DHT22;988;48.016;7.800;2023-06-26T07:10:29;28.00;62.80
1976;DHT22;988;48.016;7.800;2023-06-26T07:12:55;28.10;62.80
1976;DHT22;988;48.016;7.800;2023-06-26T07:15:20;28.10;61.80
1976;DHT22;988;48.016;7.800;2023-06-26T07:17:46;28.10;61.80
1976;DHT22;988;48.016;7.800;2023-06-26T07:20:12;28.30;61.40
1976;DHT22;988;48.016;7.800;2023-06-26T07:22:41;28.30;61.30
1976;DHT22;988;48.016;7.800;2023-06-26T07:25:07;28.30;61.30
1976;DHT22;988;48.016;7.800;2023-06-26T07:27:35;28.30;61.10
1976;DHT22;988;48.016;7.800;2023-06-26T07:30:01;28.10;60.20
1976;DHT22;988;48.016;7.800;2023-06-26T07:32:27;28.00;60.90
1976;DHT22;988;48.016;7.800;2023-06-26T07:34:52;28.30;61.90
1976;DHT22;988;48.016;7.800;2023-06-26T07:37:18;28.70;61.20
1976;DHT22;988;48.016;7.800;2023-06-26T07:39:43;28.80;59.40
1976;DHT22;988;48.016;7.800;2023-06-26T07:42:09;28.50;60.60
1976;DHT22;988;48.016;7.800;2023-06-26T07:44:34;28.60;60.00
1976;DHT22;988;48.016;7.800;2023-06-26T07:47:00;28.60;60.80
1976;DHT22;988;48.016;7.800;2023-06-26T07:49:26;28.90;60.90
1976;DHT22;988;48.016;7.800;2023-06-26T07:51:51;29.40;61.20
1976;DHT22;988;48.016;7.800;2023-06-26T07:54:17;30.20;58.00
1976;DHT22;988;48.016;7.800;2023-06-26T07:56:59;30.70;57.00
1976;DHT22;988;48.016;7.800;2023-06-26T07:59:27;31.60;55.60
1976;DHT22;988;48.016;7.800;2023-06-26T08:01:54;32.10;55.10
1976;DHT22;988;48.016;7.800;2023-06-26T08:04:22;32.80;52.90
1976;DHT22;988;48.016;7.800;2023-06-26T08:06:49;33.00;52.80
1976;DHT22;988;48.016;7.800;2023-06-26T08:09:14;32.90;52.70
1976;DHT22;988;48.016;7.800;2023-06-26T08:11:40;32.40;52.70
1976;DHT22;988;48.016;7.800;2023-06-26T08:14:06;32.00;54.10
1976;DHT22;988;48.016;7.800;2023-06-26T08:16:31;33.10;54.30
1976;DHT22;988;48.016;7.800;2023-06-26T08:18:57;33.60;51.50
1976;DHT22;988;48.016;7.800;2023-06-26T08:21:23;33.70;51.70
1976;DHT22;988;48.016;7.800;2023-06-26T08:23:50;34.10;50.60
1976;DHT22;988;48.016;7.800;2023-06-26T08:26:15;34.40;51.50
1976;DHT22;988;48.016;7.800;2023-06-26T08:28:41;36.20;49.00
1976;DHT22;988;48.016;7.800;2023-06-26T08:31:07;36.80;46.70
1976;DHT22;988;48.016;7.800;2023-06-26T08:33:33;37.70;45.60
1976;DHT22;988;48.016;7.800;2023-06-26T08:36:00;37.30;45.30
1976;DHT22;988;48.016;7.800;2023-06-26T08:38:25;38.30;44.00
1976;DHT22;988;48.016;7.800;2023-06-26T08:40:51;39.40;42.90
1976;DHT22;988;48.016;7.800;2023-06-26T08:43:16;40.70;41.20
1976;DHT22;988;48.016;7.800;2023-06-26T08:45:42;40.90;40.70
1976;DHT22;988;48.016;7.800;2023-06-26T08:48:08;41.20;39.30
1976;DHT22;988;48.016;7.800;2023-06-26T08:50:35;40.30;40.00
1976;DHT22;988;48.016;7.800;2023-06-26T08:55:41;39.70;41.00
1976;DHT22;988;48.016;7.800;2023-06-26T08:58:06;39.80;41.60
1976;DHT22;988;48.016;7.800;2023-06-26T09:00:32;41.30;40.30
1976;DHT22;988;48.016;7.800;2023-06-26T09:02:58;41.80;39.50
1976;DHT22;988;48.016;7.800;2023-06-26T09:05:26;42.60;38.60
1976;DHT22;988;48.016;7.800;2023-06-26T09:07:52;42.90;37.10
1976;DHT22;988;48.016;7.800;2023-06-26T09:10:21;43.70;37.00
1976;DHT22;988;48.016;7.800;2023-06-26T09:12:47;43.40;36.50
1976;DHT22;988;48.016;7.800;2023-06-26T09:15:20;43.10;36.60
1976;DHT22;988;48.016;7.800;2023-06-26T09:17:47;44.00;36.30
1976;DHT22;988;48.016;7.800;2023-06-26T09:20:13;42.80;36.10
1976;DHT22;988;48.016;7.800;2023-06-26T09:22:42;42.00;37.50
1976;DHT22;988;48.016;7.800;2023-06-26T09:25:08;40.60;38.40
1976;DHT22;988;48.016;7.800;2023-06-26T09:27:35;39.80;40.00
1976;DHT22;988;48.016;7.800;2023-06-26T09:30:05;39.70;40.40
1976;DHT22;988;48.016;7.800;2023-06-26T09:32:34;38.90;41.00
1976;DHT22;988;48.016;7.800;2023-06-26T09:35:03;38.30;42.40
1976;DHT22;988;48.016;7.800;2023-06-26T09:37:29;38.60;42.50
1976;DHT22;988;48.016;7.800;2023-06-26T09:39:55;40.20;41.30
1976;DHT22;988;48.016;7.800;2023-06-26T09:42:22;42.00;38.80
1976;DHT22;988;48.016;7.800;2023-06-26T09:44:48;42.10;37.90
1976;DHT22;988;48.016;7.800;2023-06-26T09:47:19;40.40;39.50
1976;DHT22;988;48.016;7.800;2023-06-26T09:49:45;41.10;39.70
1976;DHT22;988;48.016;7.800;2023-06-26T09:52:17;42.50;38.10
1976;DHT22;988;48.016;7.800;2023-06-26T09:54:44;44.10;36.30
1976;DHT22;988;48.016;7.800;2023-06-26T09:57:12;45.40;34.50
1976;DHT22;988;48.016;7.800;2023-06-26T09:59:39;44.90;34.00
1976;DHT22;988;48.016;7.800;2023-06-26T10:02:05;44.50;34.60
1976;DHT22;988;48.016;7.800;2023-06-26T10:04:31;44.80;35.40
1976;DHT22;988;48.016;7.800;2023-06-26T10:06:58;45.90;33.80
1976;DHT22;988;48.016;7.800;2023-06-26T10:09:27;46.10;32.20
1976;DHT22;988;48.016;7.800;2023-06-26T10:14:33;46.00;33.00
1976;DHT22;988;48.016;7.800;2023-06-26T10:17:01;45.40;33.60
1976;DHT22;988;48.016;7.800;2023-06-26T10:19:30;44.20;34.20
1976;DHT22;988;48.016;7.800;2023-06-26T10:21:58;43.00;36.00
1976;DHT22;988;48.016;7.800;2023-06-26T10:24:25;41.50;36.70
1976;DHT22;988;48.016;7.800;2023-06-26T10:27:06;40.40;38.70
1976;DHT22;988;48.016;7.800;2023-06-26T10:29:34;39.10;40.30
1976;DHT22;988;48.016;7.800;2023-06-26T10:32:03;38.40;41.90
1976;DHT22;988;48.016;7.800;2023-06-26T10:34:29;37.60;42.80
1976;DHT22;988;48.016;7.800;2023-06-26T10:37:04;37.20;43.70
1976;DHT22;988;48.016;7.800;2023-06-26T10:39:49;36.80;44.40
1976;DHT22;988;48.016;7.800;2023-06-26T10:42:16;37.00;45.00
1976;DHT22;988;48.016;7.800;2023-06-26T10:44:46;36.90;44.50
1976;DHT22;988;48.016;7.800;2023-06-26T10:47:29;36.20;45.00
1976;DHT22;988;48.016;7.800;2023-06-26T10:50:24;35.70;46.00
1976;DHT22;988;48.016;7.800;2023-06-26T10:55:55;35.80;47.40
1976;DHT22;988;48.016;7.800;2023-06-26T11:01:14;36.10;46.80
1976;DHT22;988;48.016;7.800;2023-06-26T11:03:48;38.70;44.40
1976;DHT22;988;48.016;7.800;2023-06-26T11:06:19;41.60;40.10
1976;DHT22;988;48.016;7.800;2023-06-26T11:11:12;45.50;34.10
1976;DHT22;988;48.016;7.800;2023-06-26T11:13:40;46.80;32.50
1976;DHT22;988;48.016;7.800;2023-06-26T11:16:06;47.30;32.70
1976;DHT22;988;48.016;7.800;2023-06-26T11:18:32;48.00;31.70
1976;DHT22;988;48.016;7.800;2023-06-26T11:21:11;49.00;30.80
1976;DHT22;988;48.016;7.800;2023-06-26T11:23:40;47.80;30.90
1976;DHT22;988;48.016;7.800;2023-06-26T11:26:21;45.50;32.50
1976;DHT22;988;48.016;7.800;2023-06-26T11:28:56;45.30;34.20
1976;DHT22;988;48.016;7.800;2023-06-26T11:33:53;46.10;33.00
1976;DHT22;988;48.016;7.800;2023-06-26T11:36:19;45.40;33.10
1976;DHT22;988;48.016;7.800;2023-06-26T11:38:44;43.60;34.60
1976;DHT22;988;48.016;7.800;2023-06-26T11:41:10;41.70;36.90
1976;DHT22;988;48.016;7.800;2023-06-26T11:43:35;39.90;39.60
1976;DHT22;988;48.016;7.800;2023-06-26T11:46:01;38.10;43.40
1976;DHT22;988;48.016;7.800;2023-06-26T11:48:27;36.90;44.90
1976;DHT22;988;48.016;7.800;2023-06-26T11:50:54;36.20;44.80
1976;DHT22;988;48.016;7.800;2023-06-26T11:53:19;35.60;45.50
1976;DHT22;988;48.016;7.800;2023-06-26T11:55:45;35.00;47.10
1976;DHT22;988;48.016;7.800;2023-06-26T11:58:11;34.60;47.70
1976;DHT22;988;48.016;7.800;2023-06-26T12:00:41;34.40;48.10
1976;DHT22;988;48.016;7.800;2023-06-26T12:03:10;33.90;48.90
1976;DHT22;988;48.016;7.800;2023-06-26T12:05:35;34.30;48.80
1976;DHT22;988;48.016;7.800;2023-06-26T12:08:01;34.40;48.60
1976;DHT22;988;48.016;7.800;2023-06-26T12:10:28;34.00;48.20
1976;DHT22;988;48.016;7.800;2023-06-26T12:12:54;33.30;49.10
1976;DHT22;988;48.016;7.800;2023-06-26T12:15:24;33.10;49.60
1976;DHT22;988;48.016;7.800;2023-06-26T12:17:49;32.70;50.10
1976;DHT22;988;48.016;7.800;2023-06-26T12:20:22;32.30;51.00
1976;DHT22;988;48.016;7.800;2023-06-26T12:22:49;32.30;51.50
1976;DHT22;988;48.016;7.800;2023-06-26T12:25:15;33.10;50.20
1976;DHT22;988;48.016;7.800;2023-06-26T12:27:46;33.80;48.90
1976;DHT22;988;48.016;7.800;2023-06-26T12:30:12;33.90;48.70
1976;DHT22;988;48.016;7.800;2023-06-26T12:32:37;34.60;47.90
1976;DHT22;988;48.016;7.800;2023-06-26T12:35:03;35.00;47.20
1976;DHT22;988;48.016;7.800;2023-06-26T12:37:29;35.80;45.70
1976;DHT22;988;48.016;7.800;2023-06-26T12:40:01;35.80;45.50
1976;DHT22;988;48.016;7.800;2023-06-26T12:42:33;36.00;45.20
1976;DHT22;988;48.016;7.800;2023-06-26T12:44:59;36.80;44.00
1976;DHT22;988;48.016;7.800;2023-06-26T12:47:27;36.60;43.20
1976;DHT22;988;48.016;7.800;2023-06-26T12:49:53;36.00;43.60
1976;DHT22;988;48.016;7.800;2023-06-26T12:52:21;36.50;44.10
1976;DHT22;988;48.016;7.800;2023-06-26T12:54:51;36.90;43.30
1976;DHT22;988;48.016;7.800;2023-06-26T12:57:17;37.70;42.60
1976;DHT22;988;48.016;7.800;2023-06-26T12:59:43;38.20;41.80
1976;DHT22;988;48.016;7.800;2023-06-26T13:02:09;39.00;40.70
1976;DHT22;988;48.016;7.800;2023-06-26T13:04:36;39.90;38.90
1976;DHT22;988;48.016;7.800;2023-06-26T13:07:05;39.80;38.10
1976;DHT22;988;48.016;7.800;2023-06-26T13:09:32;39.20;38.90
1976;DHT22;988;48.016;7.800;2023-06-26T13:11:58;38.90;39.10
1976;DHT22;988;48.016;7.800;2023-06-26T13:14:24;39.00;39.20
1976;DHT22;988;48.016;7.800;2023-06-26T13:16:50;38.50;39.50
1976;DHT22;988;48.016;7.800;2023-06-26T13:19:15;38.30;40.10
1976;DHT22;988;48.016;7.800;2023-06-26T13:21:41;38.00;40.10
1976;DHT22;988;48.016;7.800;2023-06-26T13:24:07;37.70;39.10
1976;DHT22;988;48.016;7.800;2023-06-26T13:26:33;37.00;41.40
1976;DHT22;988;48.016;7.800;2023-06-26T13:28:58;37.50;41.60
1976;DHT22;988;48.016;7.800;2023-06-26T13:31:24;38.00;41.00
1976;DHT22;988;48.016;7.800;2023-06-26T13:33:50;38.00;39.60
1976;DHT22;988;48.016;7.800;2023-06-26T13:36:16;37.60;40.20
1976;DHT22;988;48.016;7.800;2023-06-26T13:38:42;37.20;41.90
1976;DHT22;988;48.016;7.800;2023-06-26T13:41:07;36.90;40.90
1976;DHT22;988;48.016;7.800;2023-06-26T13:43:33;36.80;40.20
1976;DHT22;988;48.016;7.800;2023-06-26T13:45:59;36.40;43.00
1976;DHT22;988;48.016;7.800;2023-06-26T13:48:25;36.60;43.10
1976;DHT22;988;48.016;7.800;2023-06-26T13:50:51;36.90;43.00
1976;DHT22;988;48.016;7.800;2023-06-26T13:53:17;36.90;42.10
1976;DHT22;988;48.016;7.800;2023-06-26T13:55:43;37.10;43.20
1976;DHT22;988;48.016;7.800;2023-06-26T13:58:09;37.30;42.00
1976;DHT22;988;48.016;7.800;2023-06-26T14:00:35;37.80;40.60
1976;DHT22;988;48.016;7.800;2023-06-26T14:03:02;38.20;40.50
1976;DHT22;988;48.016;7.800;2023-06-26T14:05:35;38.30;39.40
1976;DHT22;988;48.016;7.800;2023-06-26T14:08:06;37.40;40.20
1976;DHT22;988;48.016;7.800;2023-06-26T14:10:32;37.50;41.00
1976;DHT22;988;48.016;7.800;2023-06-26T14:13:01;37.80;41.10
1976;DHT22;988;48.016;7.800;2023-06-26T14:15:28;37.70;41.00
1976;DHT22;988;48.016;7.800;2023-06-26T14:17:54;37.50;41.00
1976;DHT22;988;48.016;7.800;2023-06-26T14:20:21;37.10;39.80
1976;DHT22;988;48.016;7.800;2023-06-26T14:22:49;36.50;41.20
1976;DHT22;988;48.016;7.800;2023-06-26T14:25:16;36.60;40.50
1976;DHT22;988;48.016;7.800;2023-06-26T14:27:41;36.80;41.40
1976;DHT22;988;48.016;7.800;2023-06-26T14:30:08;37.00;41.10
1976;DHT22;988;48.016;7.800;2023-06-26T14:32:34;37.30;39.70
1976;DHT22;988;48.016;7.800;2023-06-26T14:35:00;37.20;40.70
1976;DHT22;988;48.016;7.800;2023-06-26T14:37:26;37.00;40.70
1976;DHT22;988;48.016;7.800;2023-06-26T14:39:52;37.20;39.80
1976;DHT22;988;48.016;7.800;2023-06-26T14:42:18;37.00;39.30
1976;DHT22;988;48.016;7.800;2023-06-26T14:44:43;36.90;39.40
1976;DHT22;988;48.016;7.800;2023-06-26T14:47:12;36.80;40.00
1976;DHT22;988;48.016;7.800;2023-06-26T14:49:38;37.10;38.90
1976;DHT22;988;48.016;7.800;2023-06-26T14:52:03;37.30;39.80
1976;DHT22;988;48.016;7.800;2023-06-26T14:54:29;37.50;38.30
1976;DHT22;988;48.016;7.800;2023-06-26T14:56:55;36.90;39.60
1976;DHT22;988;48.016;7.800;2023-06-26T14:59:20;36.60;38.80
1976;DHT22;988;48.016;7.800;2023-06-26T15:01:46;35.90;40.90
1976;DHT22;988;48.016;7.800;2023-06-26T15:04:11;35.90;40.40
1976;DHT22;988;48.016;7.800;2023-06-26T15:06:37;35.70;41.30
1976;DHT22;988;48.016;7.800;2023-06-26T15:09:03;35.00;40.90
1976;DHT22;988;48.016;7.800;2023-06-26T15:11:28;34.60;41.30
1976;DHT22;988;48.016;7.800;2023-06-26T15:13:55;34.20;42.80
1976;DHT22;988;48.016;7.800;2023-06-26T15:16:21;34.10;42.40
1976;DHT22;988;48.016;7.800;2023-06-26T15:18:46;33.90;43.00
1976;DHT22;988;48.016;7.800;2023-06-26T15:21:12;33.90;43.90
1976;DHT22;988;48.016;7.800;2023-06-26T15:23:38;33.90;43.20
1976;DHT22;988;48.016;7.800;2023-06-26T15:26:04;33.80;43.00
1976;DHT22;988;48.016;7.800;2023-06-26T15:28:30;33.60;43.10
1976;DHT22;988;48.016;7.800;2023-06-26T15:30:55;33.40;43.90
1976;DHT22;988;48.016;7.800;2023-06-26T15:33:21;33.30;44.00
1976;DHT22;988;48.016;7.800;2023-06-26T15:35:52;33.30;44.30
1976;DHT22;988;48.016;7.800;2023-06-26T15:38:18;32.60;45.30
1976;DHT22;988;48.016;7.800;2023-06-26T15:40:44;32.60;45.00
1976;DHT22;988;48.016;7.800;2023-06-26T15:43:09;32.60;44.40
1976;DHT22;988;48.016;7.800;2023-06-26T15:45:35;32.40;45.00
1976;DHT22;988;48.016;7.800;2023-06-26T15:48:00;32.00;45.20
1976;DHT22;988;48.016;7.800;2023-06-26T15:50:26;32.10;45.00
1976;DHT22;988;48.016;7.800;2023-06-26T15:52:53;31.70;45.10
1976;DHT22;988;48.016;7.800;2023-06-26T15:55:19;31.70;44.80
1976;DHT22;988;48.016;7.800;2023-06-26T15:57:44;31.40;46.00
1976;DHT22;988;48.016;7.800;2023-06-26T16:00:10;31.30;46.10
1976;DHT22;988;48.016;7.800;2023-06-26T16:02:37;31.40;46.90
1976;DHT22;988;48.016;7.800;2023-06-26T16:05:03;31.40;46.50
1976;DHT22;988;48.016;7.800;2023-06-26T16:07:29;31.40;47.70
1976;DHT22;988;48.016;7.800;2023-06-26T16:09:56;31.30;46.60
1976;DHT22;988;48.016;7.800;2023-06-26T16:12:22;31.40;46.60
1976;DHT22;988;48.016;7.800;2023-06-26T16:14:47;31.50;46.70
1976;DHT22;988;48.016;7.800;2023-06-26T16:17:13;31.50;46.50
1976;DHT22;988;48.016;7.800;2023-06-26T16:19:38;31.30;46.30
1976;DHT22;988;48.016;7.800;2023-06-26T16:22:05;30.90;46.90
1976;DHT22;988;48.016;7.800;2023-06-26T16:24:31;30.80;47.30
1976;DHT22;988;48.016;7.800;2023-06-26T16:26:57;30.60;47.00
1976;DHT22;988;48.016;7.800;2023-06-26T16:29:23;30.50;47.00
1976;DHT22;988;48.016;7.800;2023-06-26T16:31:48;30.50;47.00
1976;DHT22;988;48.016;7.800;2023-06-26T16:34:15;30.30;47.30